Time;durP1;ratioP1;P1;durP2;ratioP2;P2;SDS_P1;SDS_P2;PMS_P1;PMS_P2;Temp;Humidity;BMP_temperature;BMP_pressure;BME280_temperature;BME280_humidity;BME280_pressure;Samples;Min_cycle;Max_cycle;Signal;HPM_P1;HPM_P2
2021/12/19 00:01:49;;;;;;;19.15;9.23;;;7.30;99.90;;;;;;4919350;28;20416;-84
2021/12/19 00:04:30;;;;;;;13.73;7.72;;;7.30;99.90;;;;;;4963469;28;20045;-84
2021/12/19 00:09:40;;;;;;;21.90;9.00;;;7.30;99.90;;;;;;4968897;28;20035;-83
2021/12/19 00:12:06;;;;;;;22.73;9.00;;;7.30;99.90;;;;;;4951565;28;20410;-84
2021/12/19 00:14:32;;;;;;;17.55;8.77;;;7.30;99.90;;;;;;4965875;28;20046;-84
2021/12/19 00:16:58;;;;;;;20.15;9.02;;;7.30;99.90;;;;;;4938533;28;20039;-82
2021/12/19 00:19:24;;;;;;;17.08;8.95;;;7.30;99.90;;;;;;4949047;28;20054;-82
2021/12/19 00:21:50;;;;;;;23.88;9.32;;;7.30;99.90;;;;;;4941945;28;20078;-83
2021/12/19 00:24:18;;;;;;;17.60;8.15;;;7.30;99.90;;;;;;4977881;28;20497;-83
2021/12/19 00:26:44;;;;;;;17.17;8.65;;;7.30;99.90;;;;;;4943498;28;20173;-82
2021/12/19 00:29:10;;;;;;;27.95;8.45;;;7.30;99.90;;;;;;4948290;28;20050;-83
2021/12/19 00:31:37;;;;;;;15.32;7.88;;;7.30;99.90;;;;;;4951398;28;20441;-84
2021/12/19 00:34:03;;;;;;;14.18;7.45;;;7.30;99.90;;;;;;4969016;28;20049;-84
2021/12/19 00:36:29;;;;;;;14.40;7.18;;;7.30;99.90;;;;;;4947137;28;20275;-85
2021/12/19 00:38:56;;;;;;;15.25;7.65;;;7.30;99.90;;;;;;4965950;28;20523;-84
2021/12/19 00:41:22;;;;;;;16.92;7.35;;;7.30;99.90;;;;;;4945901;28;20042;-83
2021/12/19 00:44:08;;;;;;;24.70;8.45;;;7.30;99.90;;;;;;4936882;28;20502;-83
2021/12/19 00:46:43;;;;;;;22.52;8.77;;;7.30;99.90;;;;;;4971911;28;20077;-84
2021/12/19 00:49:09;;;;;;;20.90;8.50;;;7.30;99.90;;;;;;4954854;28;20034;-84
2021/12/19 00:51:35;;;;;;;19.02;8.60;;;7.30;99.90;;;;;;4974134;28;20042;-82
2021/12/19 00:54:01;;;;;;;28.45;9.38;;;7.40;99.90;;;;;;4977330;28;20445;-83
2021/12/19 00:56:26;;;;;;;19.15;9.20;;;7.40;99.90;;;;;;4957199;28;20096;-84
2021/12/19 00:58:52;;;;;;;20.45;8.50;;;7.40;99.90;;;;;;4970260;28;20034;-83
2021/12/19 01:01:18;;;;;;;22.23;8.80;;;7.40;99.90;;;;;;4946571;28;20031;-82
2021/12/19 01:03:47;;;;;;;19.38;9.10;;;7.40;99.90;;;;;;4970104;28;20082;-83
2021/12/19 01:06:17;;;;;;;15.18;6.95;;;7.40;99.90;;;;;;4969911;28;21764;-84
2021/12/19 01:08:43;;;;;;;18.13;7.50;;;7.40;99.90;;;;;;4923929;28;20061;-83
2021/12/19 01:11:08;;;;;;;15.23;6.97;;;7.40;99.90;;;;;;4949848;28;20081;-83
2021/12/19 01:13:34;;;;;;;11.38;5.93;;;7.40;99.90;;;;;;4939178;28;20519;-83
2021/12/19 01:16:01;;;;;;;16.92;6.97;;;7.40;99.90;;;;;;4942943;28;20038;-85
2021/12/19 01:18:28;;;;;;;17.20;6.82;;;7.40;99.90;;;;;;4954755;28;20096;-85
2021/12/19 01:20:55;;;;;;;21.50;7.13;;;7.40;99.90;;;;;;4939129;28;20052;-84
2021/12/19 01:23:22;;;;;;;16.85;7.75;;;7.40;99.90;;;;;;4940123;28;20059;-85
2021/12/19 01:25:49;;;;;;;18.90;8.65;;;7.40;99.90;;;;;;4938597;28;20035;-85
2021/12/19 01:28:15;;;;;;;28.80;9.10;;;7.40;99.90;;;;;;4953455;28;20383;-83
2021/12/19 01:30:41;;;;;;;21.45;9.10;;;7.40;99.90;;;;;;4952577;28;20042;-84
2021/12/19 01:33:07;;;;;;;21.65;9.05;;;7.40;99.90;;;;;;4950919;28;20053;-83
2021/12/19 01:35:32;;;;;;;32.67;9.80;;;7.50;99.90;;;;;;4953314;28;20099;-84
2021/12/19 01:37:58;;;;;;;28.30;9.82;;;7.50;99.90;;;;;;4952934;28;20564;-83
2021/12/19 01:40:25;;;;;;;23.35;9.45;;;7.40;99.90;;;;;;4937971;28;20753;-83
2021/12/19 01:42:53;;;;;;;15.05;6.30;;;7.40;99.90;;;;;;4955073;28;20038;-83
2021/12/19 01:45:36;;;;;;;9.02;4.65;;;7.40;99.90;;;;;;4954630;28;20034;-85
2021/12/19 01:48:05;;;;;;;8.93;3.38;;;7.40;99.90;;;;;;4978426;28;20436;-82
2021/12/19 01:50:33;;;;;;;7.95;3.55;;;7.40;99.90;;;;;;4955350;28;20039;-82
2021/12/19 01:53:01;;;;;;;6.78;2.88;;;7.40;99.90;;;;;;4943447;28;20059;-81
2021/12/19 01:55:27;;;;;;;7.30;2.92;;;7.40;99.90;;;;;;4951868;28;20158;-84
2021/12/19 01:57:53;;;;;;;4.32;2.67;;;7.40;99.90;;;;;;4963023;28;20065;-85
2021/12/19 02:00:29;;;;;;;5.22;2.35;;;7.40;99.90;;;;;;4951240;28;20043;-81
2021/12/19 02:02:55;;;;;;;6.20;2.40;;;7.40;99.90;;;;;;4953158;28;20442;-83
2021/12/19 02:05:22;;;;;;;7.28;2.50;;;7.40;99.90;;;;;;4940568;28;20122;-83
2021/12/19 02:07:49;;;;;;;7.05;2.97;;;7.40;99.90;;;;;;4932147;28;20504;-83
2021/12/19 02:10:24;;;;;;;5.85;2.33;;;7.30;99.90;;;;;;4966302;28;20062;-83
2021/12/19 02:12:51;;;;;;;8.35;2.45;;;7.30;99.90;;;;;;4967262;28;20093;-81
2021/12/19 02:15:20;;;;;;;5.35;1.80;;;7.30;99.90;;;;;;4952746;28;20077;-81
2021/12/19 02:17:48;;;;;;;7.72;1.90;;;7.40;99.90;;;;;;4951763;28;20049;-83
2021/12/19 02:20:15;;;;;;;4.75;1.80;;;7.30;99.90;;;;;;4944554;28;20042;-83
2021/12/19 02:22:41;;;;;;;6.28;1.45;;;7.30;99.90;;;;;;4959007;28;20070;-82
2021/12/19 02:25:08;;;;;;;2.78;1.10;;;7.30;99.90;;;;;;4955602;28;20034;-82
2021/12/19 02:27:34;;;;;;;8.73;1.20;;;7.30;99.90;;;;;;4952664;28;20078;-82
2021/12/19 02:29:59;;;;;;;2.72;1.10;;;7.20;99.90;;;;;;4937542;28;20544;-82
2021/12/19 02:32:28;;;;;;;1.33;0.90;;;7.20;99.90;;;;;;4935281;28;20031;-82
2021/12/19 02:34:57;;;;;;;8.82;1.30;;;7.30;99.90;;;;;;4970008;28;20046;-82
2021/12/19 02:48:29;;;;;;;4.05;1.20;;;7.20;99.90;;;;;;4985530;28;20070;-82
2021/12/19 02:50:56;;;;;;;4.93;1.08;;;7.20;99.90;;;;;;4972068;28;20097;-83
2021/12/19 02:53:34;;;;;;;1.75;1.00;;;7.20;99.90;;;;;;4957898;28;20042;-82
2021/12/19 02:56:05;;;;;;;2.35;1.20;;;7.20;99.90;;;;;;4988182;23;20154;-83
2021/12/19 02:58:32;;;;;;;5.13;1.20;;;7.20;99.90;;;;;;4948822;28;20043;-80
2021/12/19 03:03:33;;;;;;;2.40;0.90;;;7.20;99.90;;;;;;6059300;23;20032;-81
2021/12/19 03:05:59;;;;;;;4.43;1.15;;;7.20;99.90;;;;;;4958925;28;20512;-83
2021/12/19 03:08:25;;;;;;;2.25;1.10;;;7.20;99.90;;;;;;4962164;28;20033;-81
2021/12/19 03:17:57;;;;;;;5.43;1.50;;;7.20;99.90;;;;;;4990262;28;20042;-82
2021/12/19 03:19:08;;;;;;;3.42;1.13;;;7.20;99.90;;;;;;4962396;28;20046;-83
2021/12/19 03:21:34;;;;;;;1.75;0.90;;;7.20;99.90;;;;;;4960230;28;20046;-83
2021/12/19 03:23:59;;;;;;;1.17;0.70;;;7.10;99.90;;;;;;4960981;28;21096;-84
2021/12/19 03:26:25;;;;;;;1.73;0.82;;;7.10;99.90;;;;;;4957574;28;20500;-85
2021/12/19 03:28:51;;;;;;;4.72;1.20;;;7.10;99.90;;;;;;4959886;28;20034;-86
2021/12/19 03:31:17;;;;;;;2.70;0.90;;;7.10;99.90;;;;;;4975296;28;20052;-83
2021/12/19 03:33:43;;;;;;;3.45;1.10;;;7.10;99.90;;;;;;4983029;28;20048;-82
2021/12/19 03:36:09;;;;;;;3.38;1.10;;;7.10;99.90;;;;;;4953673;28;20129;-84
2021/12/19 03:38:39;;;;;;;5.28;1.25;;;7.10;99.90;;;;;;4943536;28;20042;-85
2021/12/19 03:41:17;;;;;;;2.40;1.00;;;7.00;99.90;;;;;;4956737;28;20100;-83
2021/12/19 03:43:43;;;;;;;5.00;1.35;;;7.00;99.90;;;;;;4990104;28;20052;-81
2021/12/19 03:46:11;;;;;;;2.25;1.17;;;7.00;99.90;;;;;;4961337;28;20046;-85
2021/12/19 03:48:37;;;;;;;5.40;1.08;;;7.00;99.90;;;;;;4968183;28;20112;-86
2021/12/19 03:51:04;;;;;;;3.58;1.00;;;7.00;99.90;;;;;;4974833;28;20505;-84
2021/12/19 03:53:29;;;;;;;3.08;0.77;;;7.00;99.90;;;;;;4958478;28;20064;-83
2021/12/19 03:55:55;;;;;;;2.75;0.80;;;7.00;99.90;;;;;;4960036;28;20184;-85
2021/12/19 03:58:21;;;;;;;6.07;1.10;;;7.00;99.90;;;;;;4943153;28;20463;-83
2021/12/19 04:00:48;;;;;;;2.00;0.80;;;7.00;99.90;;;;;;4979774;28;20065;-83
2021/12/19 04:03:19;;;;;;;6.55;1.40;;;7.00;99.90;;;;;;4965627;28;20478;-83
2021/12/19 04:05:47;;;;;;;2.80;1.05;;;7.00;99.90;;;;;;4959558;28;20047;-85
2021/12/19 04:08:13;;;;;;;2.22;1.08;;;7.00;99.90;;;;;;4971900;28;20398;-84
2021/12/19 04:10:39;;;;;;;5.70;1.02;;;7.00;99.90;;;;;;4984486;28;20041;-84
2021/12/19 04:13:07;;;;;;;7.35;0.85;;;6.90;99.90;;;;;;4986548;28;20088;-84
2021/12/19 04:15:32;;;;;;;6.40;0.75;;;6.90;99.90;;;;;;4986872;28;20045;-80
2021/12/19 04:18:01;;;;;;;2.80;0.68;;;6.90;99.90;;;;;;4959018;28;20042;-83
2021/12/19 04:20:27;;;;;;;3.63;0.70;;;6.90;99.90;;;;;;4976206;28;20041;-80
2021/12/19 04:22:53;;;;;;;4.80;0.60;;;6.90;99.90;;;;;;4987982;28;20035;-85
2021/12/19 04:25:19;;;;;;;2.67;0.90;;;6.80;99.90;;;;;;4955663;28;20035;-83
2021/12/19 04:27:45;;;;;;;1.17;0.60;;;6.80;99.90;;;;;;4950338;28;20045;-84
2021/12/19 04:30:16;;;;;;;4.47;0.90;;;6.80;99.90;;;;;;4971325;28;20125;-84
2021/12/19 04:32:46;;;;;;;2.00;0.95;;;6.80;99.90;;;;;;4984057;28;20134;-83
2021/12/19 04:35:13;;;;;;;4.03;1.05;;;6.80;99.90;;;;;;4958991;28;20078;-83
2021/12/19 04:40:31;;;;;;;4.40;1.20;;;6.80;99.90;;;;;;4989132;28;20109;-85
2021/12/19 04:51:20;;;;;;;6.50;1.17;;;6.80;99.90;;;;;;4964712;28;20286;-84
2021/12/19 05:02:03;;;;;;;7.03;1.65;;;6.70;99.90;;;;;;4975329;28;20042;-83
2021/12/19 05:15:25;;;;;;;13.05;4.10;;;6.70;99.90;;;;;;4977075;28;20042;-84
2021/12/19 05:17:52;;;;;;;9.85;4.00;;;6.80;99.90;;;;;;4957553;28;20044;-83
2021/12/19 05:20:22;;;;;;;15.10;4.00;;;6.80;99.90;;;;;;4944885;28;20049;-85
2021/12/19 05:22:55;;;;;;;16.50;4.43;;;6.80;99.90;;;;;;4957154;28;20132;-84
2021/12/19 05:25:21;;;;;;;13.63;5.07;;;6.80;99.90;;;;;;4947195;28;20129;-85
2021/12/19 05:27:53;;;;;;;10.38;4.00;;;6.80;99.90;;;;;;4953461;28;20098;-84
2021/12/19 05:30:19;;;;;;;15.13;4.50;;;6.90;99.90;;;;;;4954859;28;20548;-84
2021/12/19 05:32:47;;;;;;;14.88;4.28;;;6.80;99.90;;;;;;4942470;28;20042;-84
2021/12/19 05:35:21;;;;;;;15.02;4.45;;;6.80;99.90;;;;;;4974580;28;20111;-85
2021/12/19 05:46:00;;;;;;;14.30;5.72;;;6.90;99.90;;;;;;4977419;28;20046;-83
2021/12/19 05:48:26;;;;;;;24.20;6.38;;;6.90;99.90;;;;;;4944239;28;20370;-84
2021/12/19 05:50:52;;;;;;;18.83;6.45;;;6.90;99.90;;;;;;4960054;28;20096;-83
2021/12/19 05:53:18;;;;;;;22.50;6.20;;;6.90;99.90;;;;;;4956271;28;20038;-84
2021/12/19 05:55:43;;;;;;;16.65;6.00;;;6.90;99.90;;;;;;4990085;28;20050;-84
2021/12/19 05:58:14;;;;;;;22.27;6.15;;;6.90;99.90;;;;;;4941331;28;20688;-84
2021/12/19 06:00:40;;;;;;;24.27;6.32;;;6.90;99.90;;;;;;4948386;28;20652;-83
2021/12/19 06:03:06;;;;;;;21.17;6.18;;;7.00;99.90;;;;;;4943179;28;20045;-83
2021/12/19 06:05:34;;;;;;;25.52;6.57;;;7.00;99.90;;;;;;4977189;28;20054;-85
2021/12/19 06:07:59;;;;;;;22.42;7.28;;;6.90;99.90;;;;;;4969756;28;20205;-84
2021/12/19 06:10:28;;;;;;;24.63;7.95;;;7.00;99.90;;;;;;4973890;28;20143;-84
2021/12/19 06:12:55;;;;;;;34.08;8.07;;;7.00;99.90;;;;;;4957684;28;20493;-85
2021/12/19 06:15:20;;;;;;;23.35;8.18;;;7.00;99.90;;;;;;4984207;28;20065;-84
2021/12/19 06:17:46;;;;;;;27.67;9.60;;;7.00;99.90;;;;;;4981786;28;20038;-85
2021/12/19 06:20:13;;;;;;;21.77;7.47;;;7.00;99.90;;;;;;4937836;28;20034;-84
2021/12/19 06:22:41;;;;;;;33.53;8.80;;;7.00;99.90;;;;;;4958913;28;20693;-85
2021/12/19 06:25:08;;;;;;;25.98;8.57;;;7.00;99.90;;;;;;4960317;28;20057;-85
2021/12/19 06:27:34;;;;;;;29.33;8.90;;;7.00;99.90;;;;;;4988966;28;20120;-85
2021/12/19 06:29:59;;;;;;;28.33;8.75;;;7.00;99.90;;;;;;4945432;28;20155;-85
2021/12/19 06:32:26;;;;;;;27.88;8.57;;;7.00;99.90;;;;;;4956837;28;20489;-85
2021/12/19 06:34:52;;;;;;;32.50;9.30;;;7.00;99.90;;;;;;4967953;28;20041;-84
2021/12/19 06:37:19;;;;;;;39.38;10.25;;;7.00;99.90;;;;;;4954081;28;20130;-85
2021/12/19 06:39:46;;;;;;;30.73;9.05;;;7.00;99.90;;;;;;4949698;28;20201;-85
2021/12/19 06:42:12;;;;;;;36.30;9.88;;;7.00;99.90;;;;;;4956020;28;20031;-85
2021/12/19 06:44:38;;;;;;;44.20;9.98;;;7.00;99.90;;;;;;4940055;28;20046;-85
2021/12/19 06:47:12;;;;;;;36.53;10.32;;;7.00;99.90;;;;;;4956842;28;20493;-86
2021/12/19 06:49:48;;;;;;;32.33;9.13;;;7.00;99.90;;;;;;4958147;28;20050;-87
2021/12/19 06:52:13;;;;;;;32.05;9.60;;;7.00;99.90;;;;;;4975110;28;20705;-86
2021/12/19 06:54:39;;;;;;;27.55;9.30;;;7.00;99.90;;;;;;4943732;28;20038;-87
2021/12/19 06:57:05;;;;;;;25.48;8.35;;;7.00;99.90;;;;;;4956450;28;20604;-86
2021/12/19 06:59:31;;;;;;;40.42;9.50;;;7.00;99.90;;;;;;4973072;28;20038;-86
2021/12/19 07:01:56;;;;;;;30.75;8.63;;;7.00;99.90;;;;;;4975230;28;20073;-85
2021/12/19 07:04:22;;;;;;;29.80;8.75;;;7.00;99.90;;;;;;4941902;28;20404;-86
2021/12/19 07:06:48;;;;;;;29.38;9.13;;;7.00;99.90;;;;;;4943390;28;20033;-85
2021/12/19 07:09:14;;;;;;;32.05;8.50;;;7.00;99.90;;;;;;4974506;28;20030;-84
2021/12/19 07:11:39;;;;;;;31.65;7.88;;;7.00;99.90;;;;;;4955979;28;20044;-84
2021/12/19 07:14:05;;;;;;;28.50;7.18;;;7.00;99.90;;;;;;4958453;28;20052;-84
2021/12/19 07:16:40;;;;;;;25.85;8.48;;;7.00;99.90;;;;;;4956941;28;20046;-85
2021/12/19 07:19:12;;;;;;;25.10;7.65;;;7.00;99.90;;;;;;4949749;28;20494;-84
2021/12/19 07:21:38;;;;;;;22.85;7.32;;;7.00;99.90;;;;;;4952177;28;20043;-85
2021/12/19 07:24:04;;;;;;;25.52;6.38;;;7.00;99.90;;;;;;4953486;28;20039;-83
2021/12/19 07:26:29;;;;;;;24.88;7.20;;;7.10;99.90;;;;;;4942179;28;20034;-85
2021/12/19 07:28:56;;;;;;;31.60;7.07;;;7.00;99.90;;;;;;4961044;28;20463;-85
2021/12/19 07:31:22;;;;;;;23.52;7.05;;;7.00;99.90;;;;;;4962249;28;20049;-85
2021/12/19 07:33:48;;;;;;;25.67;6.88;;;7.00;99.90;;;;;;4972510;28;20042;-85
2021/12/19 07:36:17;;;;;;;22.73;5.57;;;7.00;99.90;;;;;;4937913;28;20038;-82
2021/12/19 07:38:59;;;;;;;23.42;6.13;;;7.00;99.90;;;;;;4972686;28;20037;-85
2021/12/19 07:41:25;;;;;;;23.60;5.22;;;7.00;99.90;;;;;;4959766;28;20044;-85
2021/12/19 07:43:51;;;;;;;21.20;5.20;;;7.00;99.90;;;;;;4966205;28;20038;-85
2021/12/19 07:46:17;;;;;;;18.42;5.43;;;7.00;99.90;;;;;;4947176;28;20046;-85
2021/12/19 07:48:43;;;;;;;26.05;5.53;;;7.00;99.90;;;;;;4969768;28;20061;-85
2021/12/19 07:51:09;;;;;;;22.48;5.45;;;7.00;99.90;;;;;;4947581;28;20045;-85
2021/12/19 07:53:34;;;;;;;22.85;5.85;;;7.00;99.90;;;;;;4978161;28;20107;-84
2021/12/19 07:56:04;;;;;;;25.92;5.30;;;7.00;99.90;;;;;;4950140;28;20504;-85
2021/12/19 07:58:30;;;;;;;27.15;5.82;;;7.00;99.90;;;;;;4939521;28;20056;-84
2021/12/19 08:00:55;;;;;;;25.48;5.40;;;7.00;99.90;;;;;;4975144;28;20116;-84
2021/12/19 08:03:21;;;;;;;25.98;5.15;;;7.00;99.90;;;;;;4955981;28;20040;-85
2021/12/19 08:05:48;;;;;;;23.02;5.20;;;7.00;99.90;;;;;;4957043;28;20046;-85
2021/12/19 08:08:17;;;;;;;25.90;5.50;;;7.00;99.90;;;;;;4967558;28;20042;-85
2021/12/19 08:13:09;;;;;;;29.75;6.00;;;7.00;99.90;;;;;;4986680;28;20050;-84
2021/12/19 08:15:37;;;;;;;21.48;5.85;;;7.00;99.90;;;;;;4992712;28;20583;-85
2021/12/19 08:18:04;;;;;;;23.90;5.60;;;7.00;99.90;;;;;;4975646;28;20042;-84
2021/12/19 08:20:30;;;;;;;37.00;5.95;;;7.00;99.90;;;;;;4947072;28;20034;-84
2021/12/19 08:22:56;;;;;;;25.55;5.30;;;7.00;99.90;;;;;;4952689;28;20034;-84
2021/12/19 08:25:25;;;;;;;26.02;5.65;;;7.00;99.90;;;;;;4973871;28;20050;-85
2021/12/19 08:27:52;;;;;;;17.25;4.45;;;7.00;99.90;;;;;;4953128;28;20525;-84
2021/12/19 08:30:18;;;;;;;22.55;4.75;;;7.00;99.90;;;;;;4963430;28;20038;-83
2021/12/19 08:32:44;;;;;;;24.98;4.43;;;7.00;99.90;;;;;;4969323;28;20449;-82
2021/12/19 08:35:12;;;;;;;20.42;4.43;;;7.10;99.90;;;;;;4979036;28;20053;-85
2021/12/19 08:37:38;;;;;;;24.05;4.88;;;7.10;99.90;;;;;;4979906;28;20052;-85
2021/12/19 08:40:07;;;;;;;16.10;3.80;;;7.10;99.90;;;;;;4973850;28;20040;-86
2021/12/19 08:42:34;;;;;;;20.63;4.03;;;7.10;99.90;;;;;;4957791;28;20100;-86
2021/12/19 08:45:00;;;;;;;22.15;4.80;;;7.10;99.90;;;;;;4929655;28;20294;-85
2021/12/19 08:47:27;;;;;;;22.13;4.45;;;7.10;99.90;;;;;;4949783;28;20038;-87
2021/12/19 08:49:52;;;;;;;19.60;4.72;;;7.10;99.90;;;;;;4944106;28;20030;-86
2021/12/19 08:52:18;;;;;;;27.00;4.35;;;7.10;99.90;;;;;;4972689;28;20038;-86
2021/12/19 08:54:44;;;;;;;20.17;4.60;;;7.20;99.90;;;;;;4941715;28;20129;-86
2021/12/19 08:57:10;;;;;;;14.23;4.18;;;7.20;99.90;;;;;;4952808;28;20136;-85
2021/12/19 08:59:35;;;;;;;26.67;4.90;;;7.20;99.90;;;;;;4964034;28;20564;-86
2021/12/19 09:02:02;;;;;;;21.45;4.32;;;7.20;99.90;;;;;;4962765;28;20404;-83
2021/12/19 09:04:29;;;;;;;22.48;4.90;;;7.20;99.90;;;;;;4987786;28;20033;-84
2021/12/19 09:06:56;;;;;;;22.00;4.82;;;7.20;99.90;;;;;;4959239;28;20068;-84
2021/12/19 09:09:23;;;;;;;19.00;4.32;;;7.30;99.90;;;;;;4975097;28;20034;-85
2021/12/19 09:11:49;;;;;;;20.17;4.97;;;7.20;99.90;;;;;;4967354;28;20069;-85
2021/12/19 09:14:15;;;;;;;24.45;5.57;;;7.20;99.90;;;;;;4974739;28;20029;-84
2021/12/19 09:16:41;;;;;;;27.83;5.18;;;7.20;99.90;;;;;;4959542;28;20490;-85
2021/12/19 09:19:07;;;;;;;26.73;5.20;;;7.30;99.90;;;;;;4963974;28;20085;-85
2021/12/19 09:21:32;;;;;;;25.85;4.90;;;7.30;99.90;;;;;;4951667;28;20124;-85
2021/12/19 09:23:59;;;;;;;24.15;4.63;;;7.30;99.90;;;;;;4941917;28;20034;-85
2021/12/19 09:26:25;;;;;;;20.35;4.32;;;7.30;99.90;;;;;;4962961;28;20045;-85
2021/12/19 09:28:50;;;;;;;19.25;4.65;;;7.30;99.90;;;;;;4971214;28;20041;-84
2021/12/19 09:31:16;;;;;;;23.13;4.68;;;7.30;99.90;;;;;;4960329;28;20029;-84
2021/12/19 09:33:42;;;;;;;21.83;4.43;;;7.30;99.90;;;;;;4954176;28;20054;-84
2021/12/19 09:36:08;;;;;;;25.88;4.40;;;7.40;99.90;;;;;;4951336;28;20049;-85
2021/12/19 09:38:35;;;;;;;22.40;3.72;;;7.40;99.90;;;;;;4961171;28;20049;-84
2021/12/19 09:41:01;;;;;;;19.25;4.72;;;7.40;99.90;;;;;;4959803;28;20129;-83
2021/12/19 09:43:43;;;;;;;23.45;4.78;;;7.40;99.90;;;;;;4956424;28;20389;-85
2021/12/19 09:46:16;;;;;;;27.20;4.80;;;7.40;99.90;;;;;;5015195;28;20532;-83
2021/12/19 09:48:44;;;;;;;24.85;4.88;;;7.40;99.90;;;;;;4987110;28;20564;-85
2021/12/19 09:51:10;;;;;;;20.63;4.03;;;7.40;99.90;;;;;;4970050;28;20238;-84
2021/12/19 09:53:37;;;;;;;20.92;3.90;;;7.40;99.90;;;;;;4950748;28;20046;-83
2021/12/19 09:56:04;;;;;;;18.48;4.00;;;7.40;99.90;;;;;;4939856;28;20096;-84
2021/12/19 09:58:34;;;;;;;19.42;3.67;;;7.50;99.90;;;;;;4943541;28;20038;-83
2021/12/19 10:01:03;;;;;;;23.48;4.25;;;7.50;99.90;;;;;;4977134;28;20512;-84
2021/12/19 10:03:29;;;;;;;15.95;3.42;;;7.50;99.90;;;;;;4992521;28;20040;-84
2021/12/19 10:06:15;;;;;;;19.65;3.72;;;7.50;99.90;;;;;;4966094;28;20038;-84
2021/12/19 10:08:41;;;;;;;18.50;3.50;;;7.50;99.90;;;;;;4962350;28;20033;-84
2021/12/19 10:11:42;;;;;;;18.02;3.15;;;7.50;99.90;;;;;;4975898;28;20249;-84
2021/12/19 10:14:24;;;;;;;11.35;3.38;;;7.50;99.90;;;;;;4970919;28;20472;-84
2021/12/19 10:16:52;;;;;;;21.67;3.97;;;7.50;99.90;;;;;;4992729;28;20038;-84
2021/12/19 10:19:18;;;;;;;20.45;3.42;;;7.50;99.90;;;;;;4973158;28;20038;-84
2021/12/19 10:21:44;;;;;;;20.60;4.07;;;7.50;99.90;;;;;;4956653;28;20468;-84
2021/12/19 10:24:29;;;;;;;11.18;3.38;;;7.50;99.90;;;;;;4958407;28;20042;-84
2021/12/19 10:26:55;;;;;;;22.42;3.55;;;7.50;99.90;;;;;;4969754;28;20497;-83
2021/12/19 10:29:41;;;;;;;19.38;3.28;;;7.50;99.90;;;;;;4959623;28;20125;-85
2021/12/19 10:32:07;;;;;;;13.70;3.20;;;7.50;99.90;;;;;;4963165;28;20038;-84
2021/12/19 10:34:33;;;;;;;18.10;4.07;;;7.50;99.90;;;;;;4977161;28;20456;-84
2021/12/19 10:36:58;;;;;;;16.33;3.60;;;7.50;99.90;;;;;;4960441;28;20038;-84
2021/12/19 10:39:34;;;;;;;16.77;3.05;;;7.60;99.90;;;;;;4960939;28;20463;-85
2021/12/19 10:42:01;;;;;;;20.42;3.53;;;7.60;99.90;;;;;;4962246;28;20108;-83
2021/12/19 10:47:26;;;;;;;14.38;3.17;;;7.60;99.90;;;;;;4993589;28;20660;-82
2021/12/19 10:49:53;;;;;;;24.08;3.47;;;7.70;99.90;;;;;;4977496;28;20037;-84
2021/12/19 10:52:34;;;;;;;18.02;3.65;;;7.70;99.90;;;;;;4974589;28;20038;-85
2021/12/19 10:55:03;;;;;;;21.38;3.38;;;7.70;99.90;;;;;;4981591;28;20040;-85
2021/12/19 10:57:38;;;;;;;16.27;3.25;;;7.70;99.90;;;;;;4977060;28;20057;-85
2021/12/19 11:00:09;;;;;;;25.08;3.28;;;7.70;99.90;;;;;;4975710;28;20052;-85
2021/12/19 11:02:43;;;;;;;20.95;3.47;;;7.70;99.90;;;;;;4992920;28;20033;-85
2021/12/19 11:05:32;;;;;;;18.55;3.45;;;7.80;99.90;;;;;;4972292;28;20778;-84
2021/12/19 11:08:04;;;;;;;19.33;2.92;;;7.80;99.90;;;;;;4969391;28;20038;-83
2021/12/19 11:10:33;;;;;;;19.25;3.17;;;7.70;99.90;;;;;;4974793;28;20630;-85
2021/12/19 11:13:10;;;;;;;18.27;3.05;;;7.70;99.90;;;;;;4951668;28;20128;-85
2021/12/19 11:15:36;;;;;;;22.15;3.40;;;7.70;99.90;;;;;;4966175;28;20057;-85
2021/12/19 11:18:02;;;;;;;18.88;2.67;;;7.80;99.90;;;;;;4958239;28;20129;-84
2021/12/19 11:20:28;;;;;;;20.90;3.20;;;7.80;99.90;;;;;;4960575;28;20035;-85
2021/12/19 11:22:55;;;;;;;22.05;3.45;;;7.80;99.90;;;;;;4977317;28;20504;-85
2021/12/19 11:25:21;;;;;;;17.63;3.30;;;7.80;99.90;;;;;;4961695;28;20038;-81
2021/12/19 11:27:48;;;;;;;18.85;2.85;;;7.80;99.90;;;;;;4976854;28;20042;-86
2021/12/19 11:30:18;;;;;;;17.95;2.50;;;7.80;99.90;;;;;;4978560;28;20042;-84
2021/12/19 11:33:06;;;;;;;16.52;2.90;;;7.80;99.90;;;;;;4993626;28;20567;-84
2021/12/19 11:35:36;;;;;;;18.30;2.60;;;7.90;99.90;;;;;;4972618;28;20476;-85
2021/12/19 11:38:09;;;;;;;26.10;3.15;;;7.80;99.90;;;;;;4994011;28;20073;-84
2021/12/19 11:40:37;;;;;;;14.65;2.40;;;7.80;99.90;;;;;;4971832;28;20054;-85
2021/12/19 11:43:07;;;;;;;16.70;2.47;;;7.80;99.90;;;;;;4961993;28;20074;-85
2021/12/19 11:48:27;;;;;;;21.95;3.45;;;7.90;99.90;;;;;;4969541;28;20125;-85
2021/12/19 11:50:58;;;;;;;23.15;3.10;;;7.90;99.90;;;;;;4969013;28;20129;-84
2021/12/19 11:53:30;;;;;;;19.08;2.35;;;7.90;99.90;;;;;;4989403;28;20494;-82
2021/12/19 11:56:11;;;;;;;15.65;2.65;;;7.90;99.90;;;;;;4973031;28;20549;-85
2021/12/19 11:58:50;;;;;;;13.57;2.58;;;7.90;99.90;;;;;;4972495;28;20045;-86
2021/12/19 12:01:30;;;;;;;28.90;3.10;;;7.90;99.90;;;;;;4975243;28;20471;-86
2021/12/19 12:04:21;;;;;;;15.70;2.70;;;7.90;99.90;;;;;;4991910;28;20034;-86
2021/12/19 12:06:58;;;;;;;15.65;3.13;;;7.90;99.90;;;;;;4965977;28;20046;-82
2021/12/19 12:09:40;;;;;;;23.30;3.08;;;7.90;99.90;;;;;;4958861;28;20107;-84
2021/12/19 12:12:11;;;;;;;26.13;3.65;;;7.90;99.90;;;;;;4955767;28;20049;-85
2021/12/19 12:14:53;;;;;;;17.97;2.97;;;7.90;99.90;;;;;;4981260;28;20150;-81
2021/12/19 12:17:26;;;;;;;21.27;3.40;;;7.90;99.90;;;;;;4971954;28;20038;-85
2021/12/19 12:19:57;;;;;;;21.35;3.22;;;8.00;99.90;;;;;;4950799;28;20052;-85
2021/12/19 12:22:37;;;;;;;24.27;3.90;;;7.90;99.90;;;;;;4990059;28;20360;-84
2021/12/19 12:25:22;;;;;;;17.42;3.03;;;7.90;99.90;;;;;;4974163;28;20044;-84
2021/12/19 12:27:54;;;;;;;15.25;2.67;;;7.90;99.90;;;;;;4985556;28;20036;-85
2021/12/19 12:30:27;;;;;;;23.23;3.25;;;7.90;99.90;;;;;;4977862;28;20092;-84
2021/12/19 12:32:54;;;;;;;25.05;3.60;;;8.00;99.90;;;;;;4994917;28;20124;-84
2021/12/19 12:35:21;;;;;;;21.58;3.35;;;8.00;99.90;;;;;;4957877;28;20064;-81
2021/12/19 12:37:51;;;;;;;16.27;2.78;;;7.90;99.90;;;;;;4973828;28;20261;-84
2021/12/19 12:40:28;;;;;;;26.00;3.50;;;8.00;99.90;;;;;;4967272;28;20125;-85
2021/12/19 12:42:59;;;;;;;29.58;3.85;;;8.00;99.90;;;;;;4978018;28;20503;-84
2021/12/19 12:45:26;;;;;;;25.35;3.88;;;8.00;99.90;;;;;;4973005;28;20386;-84
2021/12/19 12:47:52;;;;;;;30.27;3.60;;;8.00;99.90;;;;;;4967139;28;20044;-85
2021/12/19 12:50:18;;;;;;;20.20;4.50;;;8.00;99.90;;;;;;4990084;28;20125;-85
2021/12/19 12:52:44;;;;;;;18.27;2.95;;;8.00;99.90;;;;;;4975979;28;20071;-84
2021/12/19 12:55:10;;;;;;;25.00;4.07;;;8.00;99.90;;;;;;4952678;28;20358;-84
2021/12/19 12:57:37;;;;;;;22.63;3.70;;;8.00;99.90;;;;;;4956368;28;20304;-85
2021/12/19 13:00:04;;;;;;;20.35;3.05;;;8.00;99.90;;;;;;4963020;28;20117;-82
2021/12/19 13:02:43;;;;;;;28.65;3.53;;;8.00;99.90;;;;;;4967042;28;20125;-83
2021/12/19 13:05:11;;;;;;;27.83;3.85;;;8.00;99.90;;;;;;4967043;28;20057;-82
2021/12/19 13:07:37;;;;;;;23.88;3.33;;;8.00;99.90;;;;;;4966917;28;20132;-84
2021/12/19 13:10:04;;;;;;;30.23;4.05;;;8.00;99.90;;;;;;4948791;28;20130;-84
2021/12/19 13:12:38;;;;;;;23.35;3.85;;;8.00;99.90;;;;;;4950528;28;20505;-85
2021/12/19 13:15:09;;;;;;;29.17;3.20;;;8.00;99.90;;;;;;4986008;28;20497;-84
2021/12/19 13:17:40;;;;;;;28.88;3.88;;;8.00;99.90;;;;;;4970089;28;20263;-83
2021/12/19 13:20:20;;;;;;;26.25;3.72;;;8.00;99.90;;;;;;4974495;28;20050;-84
2021/12/19 13:22:55;;;;;;;33.10;3.88;;;8.00;99.90;;;;;;4970534;28;20517;-86
2021/12/19 13:25:37;;;;;;;21.70;3.30;;;8.00;99.90;;;;;;4972707;28;20038;-83
2021/12/19 13:28:05;;;;;;;24.00;3.30;;;8.00;99.90;;;;;;4977452;28;20065;-83
2021/12/19 13:30:41;;;;;;;32.40;4.55;;;8.00;99.90;;;;;;4968378;28;20072;-84
2021/12/19 13:33:08;;;;;;;35.10;3.80;;;7.90;99.90;;;;;;4953996;28;20494;-83
2021/12/19 13:35:41;;;;;;;30.58;3.55;;;7.90;99.90;;;;;;4977320;28;20038;-85
2021/12/19 13:38:25;;;;;;;21.35;2.95;;;7.90;99.90;;;;;;4966976;28;20448;-84
2021/12/19 13:41:06;;;;;;;25.65;4.13;;;7.90;99.90;;;;;;4965480;28;20038;-85
2021/12/19 13:43:37;;;;;;;26.65;3.55;;;7.90;99.90;;;;;;4983683;28;20311;-84
2021/12/19 13:46:08;;;;;;;20.63;2.88;;;7.90;99.90;;;;;;4974225;28;20071;-84
2021/12/19 13:48:47;;;;;;;23.05;3.72;;;7.90;99.90;;;;;;4973177;28;20278;-83
2021/12/19 13:51:19;;;;;;;23.70;3.17;;;7.90;99.90;;;;;;4989349;28;20037;-85
2021/12/19 13:53:52;;;;;;;22.27;3.65;;;7.90;99.90;;;;;;4976534;28;20698;-86
2021/12/19 13:56:30;;;;;;;29.98;3.35;;;7.90;99.90;;;;;;4976727;28;20042;-83
2021/12/19 13:59:02;;;;;;;27.40;3.63;;;7.90;99.90;;;;;;4965943;28;20043;-86
2021/12/19 14:01:29;;;;;;;22.75;3.55;;;7.90;99.90;;;;;;4973356;28;20041;-85
2021/12/19 14:03:58;;;;;;;23.30;3.13;;;7.90;99.90;;;;;;4960632;28;20069;-85
2021/12/19 14:06:25;;;;;;;26.88;3.75;;;7.90;99.90;;;;;;4971684;28;20156;-83